sensor_id;sensor_type;location;lat;lon;timestamp;temperature;humidity
64858;SHT30;51335;51.148;6.950;2023-02-15T00:00:08;1.19;96.65
64858;SHT30;51335;51.148;6.950;2023-02-15T00:00:39;1.18;96.66
64858;SHT30;51335;51.148;6.950;2023-02-15T00:01:10;1.15;96.81
64858;SHT30;51335;51.148;6.950;2023-02-15T00:01:41;1.15;96.78
64858;SHT30;51335;51.148;6.950;2023-02-15T00:02:12;1.09;96.79
64858;SHT30;51335;51.148;6.950;2023-02-15T00:02:42;1.06;96.79
64858;SHT30;51335;51.148;6.950;2023-02-15T00:03:12;1.08;97.19
64858;SHT30;51335;51.148;6.950;2023-02-15T00:03:47;1.02;97.16
64858;SHT30;51335;51.148;6.950;2023-02-15T00:04:21;1.01;97.14
64858;SHT30;51335;51.148;6.950;2023-02-15T00:04:52;0.98;97.50
64858;SHT30;51335;51.148;6.950;2023-02-15T00:05:22;0.99;97.51
64858;SHT30;51335;51.148;6.950;2023-02-15T00:05:52;0.98;97.49
64858;SHT30;51335;51.148;6.950;2023-02-15T00:06:23;0.95;97.83
64858;SHT30;51335;51.148;6.950;2023-02-15T00:06:53;0.95;97.87
64858;SHT30;51335;51.148;6.950;2023-02-15T00:07:23;0.96;97.93
64858;SHT30;51335;51.148;6.950;2023-02-15T00:07:54;0.98;98.40
64858;SHT30;51335;51.148;6.950;2023-02-15T00:08:24;0.95;98.28
64858;SHT30;51335;51.148;6.950;2023-02-15T00:08:55;0.93;98.12
64858;SHT30;51335;51.148;6.950;2023-02-15T00:09:25;0.95;98.19
64858;SHT30;51335;51.148;6.950;2023-02-15T00:09:55;0.96;98.16
64858;SHT30;51335;51.148;6.950;2023-02-15T00:10:25;0.98;98.10
64858;SHT30;51335;51.148;6.950;2023-02-15T00:11:13;0.98;98.08
64858;SHT30;51335;51.148;6.950;2023-02-15T00:11:44;0.95;97.94
64858;SHT30;51335;51.148;6.950;2023-02-15T00:12:15;0.96;98.04
64858;SHT30;51335;51.148;6.950;2023-02-15T00:12:45;0.95;98.07
64858;SHT30;51335;51.148;6.950;2023-02-15T00:13:16;0.96;98.07
64858;SHT30;51335;51.148;6.950;2023-02-15T00:13:46;0.93;98.02
64858;SHT30;51335;51.148;6.950;2023-02-15T00:14:21;0.95;98.02
64858;SHT30;51335;51.148;6.950;2023-02-15T00:14:51;0.92;97.92
64858;SHT30;51335;51.148;6.950;2023-02-15T00:15:21;0.89;97.80
64858;SHT30;51335;51.148;6.950;2023-02-15T00:15:52;0.88;97.79
64858;SHT30;51335;51.148;6.950;2023-02-15T00:16:22;0.87;97.74
64858;SHT30;51335;51.148;6.950;2023-02-15T00:16:52;0.85;97.83
64858;SHT30;51335;51.148;6.950;2023-02-15T00:17:22;0.84;97.80
64858;SHT30;51335;51.148;6.950;2023-02-15T00:17:53;0.82;97.76
64858;SHT30;51335;51.148;6.950;2023-02-15T00:18:23;0.84;97.76
64858;SHT30;51335;51.148;6.950;2023-02-15T00:18:53;0.84;97.86
64858;SHT30;51335;51.148;6.950;2023-02-15T00:19:23;0.82;97.83
64858;SHT30;51335;51.148;6.950;2023-02-15T00:19:54;0.85;97.77
64858;SHT30;51335;51.148;6.950;2023-02-15T00:20:24;0.85;97.73
64858;SHT30;51335;51.148;6.950;2023-02-15T00:20:54;0.81;97.68
64858;SHT30;51335;51.148;6.950;2023-02-15T00:21:25;0.78;97.70
64858;SHT30;51335;51.148;6.950;2023-02-15T00:21:55;0.80;97.76
64858;SHT30;51335;51.148;6.950;2023-02-15T00:22:25;0.80;97.78
64858;SHT30;51335;51.148;6.950;2023-02-15T00:22:56;0.77;97.78
64858;SHT30;51335;51.148;6.950;2023-02-15T00:23:26;0.75;97.95
64858;SHT30;51335;51.148;6.950;2023-02-15T00:24:01;0.81;97.90
64858;SHT30;51335;51.148;6.950;2023-02-15T00:24:32;0.75;97.81
64858;SHT30;51335;51.148;6.950;2023-02-15T00:25:02;0.78;97.85
64858;SHT30;51335;51.148;6.950;2023-02-15T00:25:32;0.82;97.81
64858;SHT30;51335;51.148;6.950;2023-02-15T00:26:08;0.85;97.74
64858;SHT30;51335;51.148;6.950;2023-02-15T00:26:39;0.85;97.69
64858;SHT30;51335;51.148;6.950;2023-02-15T00:27:10;0.82;97.66
64858;SHT30;51335;51.148;6.950;2023-02-15T00:27:40;0.81;97.75
64858;SHT30;51335;51.148;6.950;2023-02-15T00:28:11;0.78;97.72
64858;SHT30;51335;51.148;6.950;2023-02-15T00:28:41;0.75;97.71
64858;SHT30;51335;51.148;6.950;2023-02-15T00:29:12;0.77;97.64
64858;SHT30;51335;51.148;6.950;2023-02-15T00:29:43;0.74;97.70
64858;SHT30;51335;51.148;6.950;2023-02-15T00:30:13;0.70;97.67
64858;SHT30;51335;51.148;6.950;2023-02-15T00:30:44;0.71;97.68
64858;SHT30;51335;51.148;6.950;2023-02-15T00:31:14;0.70;97.76
64858;SHT30;51335;51.148;6.950;2023-02-15T00:31:44;0.67;97.74
64858;SHT30;51335;51.148;6.950;2023-02-15T00:32:15;0.68;97.77
64858;SHT30;51335;51.148;6.950;2023-02-15T00:32:47;0.65;97.78
64858;SHT30;51335;51.148;6.950;2023-02-15T00:33:17;0.65;97.76
64858;SHT30;51335;51.148;6.950;2023-02-15T00:33:48;0.61;97.78
64858;SHT30;51335;51.148;6.950;2023-02-15T00:34:21;0.62;97.77
64858;SHT30;51335;51.148;6.950;2023-02-15T00:34:51;0.60;97.75
64858;SHT30;51335;51.148;6.950;2023-02-15T00:35:22;0.57;97.81
64858;SHT30;51335;51.148;6.950;2023-02-15T00:35:57;0.57;97.77
64858;SHT30;51335;51.148;6.950;2023-02-15T00:36:27;0.56;97.86
64858;SHT30;51335;51.148;6.950;2023-02-15T00:36:57;0.56;97.93
64858;SHT30;51335;51.148;6.950;2023-02-15T00:37:27;0.54;97.95
64858;SHT30;51335;51.148;6.950;2023-02-15T00:37:58;0.51;97.99
64858;SHT30;51335;51.148;6.950;2023-02-15T00:38:29;0.50;98.00
64858;SHT30;51335;51.148;6.950;2023-02-15T00:38:59;0.49;98.04
64858;SHT30;51335;51.148;6.950;2023-02-15T00:39:29;0.53;98.04
64858;SHT30;51335;51.148;6.950;2023-02-15T00:40:00;0.51;98.12
64858;SHT30;51335;51.148;6.950;2023-02-15T00:40:30;0.53;98.08
64858;SHT30;51335;51.148;6.950;2023-02-15T00:41:02;0.47;98.01
64858;SHT30;51335;51.148;6.950;2023-02-15T00:41:33;0.47;98.01
64858;SHT30;51335;51.148;6.950;2023-02-15T00:42:03;0.47;98.02
64858;SHT30;51335;51.148;6.950;2023-02-15T00:42:33;0.46;98.12
64858;SHT30;51335;51.148;6.950;2023-02-15T00:43:04;0.46;98.08
64858;SHT30;51335;51.148;6.950;2023-02-15T00:43:35;0.46;98.13
64858;SHT30;51335;51.148;6.950;2023-02-15T00:44:06;0.46;98.28
64858;SHT30;51335;51.148;6.950;2023-02-15T00:44:36;0.46;98.38
64858;SHT30;51335;51.148;6.950;2023-02-15T00:45:07;0.43;98.26
64858;SHT30;51335;51.148;6.950;2023-02-15T00:45:37;0.41;98.17
64858;SHT30;51335;51.148;6.950;2023-02-15T00:46:07;0.41;98.15
64858;SHT30;51335;51.148;6.950;2023-02-15T00:46:38;0.37;98.08
64858;SHT30;51335;51.148;6.950;2023-02-15T00:47:08;0.37;98.10
64858;SHT30;51335;51.148;6.950;2023-02-15T00:47:38;0.33;98.08
64858;SHT30;51335;51.148;6.950;2023-02-15T00:48:09;0.33;98.06
64858;SHT30;51335;51.148;6.950;2023-02-15T00:48:39;0.30;98.08
64858;SHT30;51335;51.148;6.950;2023-02-15T00:49:09;0.30;98.09
64858;SHT30;51335;51.148;6.950;2023-02-15T00:49:40;0.27;98.10
64858;SHT30;51335;51.148;6.950;2023-02-15T00:50:10;0.24;98.07
64858;SHT30;51335;51.148;6.950;2023-02-15T00:50:40;0.24;98.06
64858;SHT30;51335;51.148;6.950;2023-02-15T00:51:10;0.23;98.08
64858;SHT30;51335;51.148;6.950;2023-02-15T00:51:41;0.22;98.17
64858;SHT30;51335;51.148;6.950;2023-02-15T00:52:11;0.22;98.19
64858;SHT30;51335;51.148;6.950;2023-02-15T00:52:41;0.26;98.64
64858;SHT30;51335;51.148;6.950;2023-02-15T00:53:12;0.24;98.60
64858;SHT30;51335;51.148;6.950;2023-02-15T00:53:43;0.24;98.39
64858;SHT30;51335;51.148;6.950;2023-02-15T00:54:14;0.23;98.31
64858;SHT30;51335;51.148;6.950;2023-02-15T00:54:44;0.17;98.20
64858;SHT30;51335;51.148;6.950;2023-02-15T00:55:14;0.17;98.14
64858;SHT30;51335;51.148;6.950;2023-02-15T00:55:45;0.14;98.14
64858;SHT30;51335;51.148;6.950;2023-02-15T00:56:15;0.12;98.11
64858;SHT30;51335;51.148;6.950;2023-02-15T00:56:45;0.09;98.05
64858;SHT30;51335;51.148;6.950;2023-02-15T00:57:16;0.09;98.03
64858;SHT30;51335;51.148;6.950;2023-02-15T00:57:46;0.07;98.11
64858;SHT30;51335;51.148;6.950;2023-02-15T00:58:16;0.07;98.13
64858;SHT30;51335;51.148;6.950;2023-02-15T00:58:47;0.05;98.18
64858;SHT30;51335;51.148;6.950;2023-02-15T00:59:17;0.03;98.17
64858;SHT30;51335;51.148;6.950;2023-02-15T00:59:47;0.03;98.29
64858;SHT30;51335;51.148;6.950;2023-02-15T01:00:17;0.02;98.32
64858;SHT30;51335;51.148;6.950;2023-02-15T01:00:49;0.02;98.37
64858;SHT30;51335;51.148;6.950;2023-02-15T01:01:20;0.02;98.34
64858;SHT30;51335;51.148;6.950;2023-02-15T01:01:50;-0.01;98.47
64858;SHT30;51335;51.148;6.950;2023-02-15T01:02:20;0.02;98.83
64858;SHT30;51335;51.148;6.950;2023-02-15T01:02:51;0.01;98.74
64858;SHT30;51335;51.148;6.950;2023-02-15T01:03:21;-0.04;98.66
64858;SHT30;51335;51.148;6.950;2023-02-15T01:03:52;-0.02;98.60
64858;SHT30;51335;51.148;6.950;2023-02-15T01:04:22;-0.05;98.55
64858;SHT30;51335;51.148;6.950;2023-02-15T01:04:52;-0.05;98.55
64858;SHT30;51335;51.148;6.950;2023-02-15T01:05:23;-0.04;98.59
64858;SHT30;51335;51.148;6.950;2023-02-15T01:05:53;-0.05;98.57
64858;SHT30;51335;51.148;6.950;2023-02-15T01:06:23;-0.08;98.60
64858;SHT30;51335;51.148;6.950;2023-02-15T01:06:53;-0.05;98.60
64858;SHT30;51335;51.148;6.950;2023-02-15T01:07:24;-0.07;98.57
64858;SHT30;51335;51.148;6.950;2023-02-15T01:07:54;-0.09;98.55
64858;SHT30;51335;51.148;6.950;2023-02-15T01:08:24;-0.11;98.56
64858;SHT30;51335;51.148;6.950;2023-02-15T01:08:55;-0.14;98.52
64858;SHT30;51335;51.148;6.950;2023-02-15T01:09:25;-0.11;98.57
64858;SHT30;51335;51.148;6.950;2023-02-15T01:09:55;-0.11;98.64
64858;SHT30;51335;51.148;6.950;2023-02-15T01:10:27;-0.12;98.66
64858;SHT30;51335;51.148;6.950;2023-02-15T01:11:13;-0.12;98.77
64858;SHT30;51335;51.148;6.950;2023-02-15T01:11:44;-0.14;98.74
64858;SHT30;51335;51.148;6.950;2023-02-15T01:12:14;-0.11;98.76
64858;SHT30;51335;51.148;6.950;2023-02-15T01:12:44;-0.11;98.80
64858;SHT30;51335;51.148;6.950;2023-02-15T01:13:15;-0.12;98.80
64858;SHT30;51335;51.148;6.950;2023-02-15T01:13:46;-0.11;98.87
64858;SHT30;51335;51.148;6.950;2023-02-15T01:14:16;-0.12;98.89
64858;SHT30;51335;51.148;6.950;2023-02-15T01:14:46;-0.11;98.86
64858;SHT30;51335;51.148;6.950;2023-02-15T01:15:16;-0.14;98.90
64858;SHT30;51335;51.148;6.950;2023-02-15T01:15:53;-0.09;98.86
64858;SHT30;51335;51.148;6.950;2023-02-15T01:16:26;-0.11;98.84
64858;SHT30;51335;51.148;6.950;2023-02-15T01:16:57;-0.11;98.93
64858;SHT30;51335;51.148;6.950;2023-02-15T01:17:27;-0.12;98.96
64858;SHT30;51335;51.148;6.950;2023-02-15T01:17:57;-0.11;98.98
64858;SHT30;51335;51.148;6.950;2023-02-15T01:18:28;-0.09;99.00
64858;SHT30;51335;51.148;6.950;2023-02-15T01:18:58;-0.11;98.99
64858;SHT30;51335;51.148;6.950;2023-02-15T01:19:28;-0.12;98.96
64858;SHT30;51335;51.148;6.950;2023-02-15T01:19:58;-0.11;98.97
64858;SHT30;51335;51.148;6.950;2023-02-15T01:20:29;-0.09;99.06
64858;SHT30;51335;51.148;6.950;2023-02-15T01:20:59;-0.09;99.06
64858;SHT30;51335;51.148;6.950;2023-02-15T01:21:30;-0.11;99.07
64858;SHT30;51335;51.148;6.950;2023-02-15T01:22:00;-0.11;98.98
64858;SHT30;51335;51.148;6.950;2023-02-15T01:22:30;-0.12;99.01
64858;SHT30;51335;51.148;6.950;2023-02-15T01:23:00;-0.11;98.94
64858;SHT30;51335;51.148;6.950;2023-02-15T01:23:32;-0.14;98.98
64858;SHT30;51335;51.148;6.950;2023-02-15T01:24:03;-0.14;98.97
64858;SHT30;51335;51.148;6.950;2023-02-15T01:24:33;-0.15;98.93
64858;SHT30;51335;51.148;6.950;2023-02-15T01:25:03;-0.16;98.89
64858;SHT30;51335;51.148;6.950;2023-02-15T01:25:35;-0.16;98.86
64858;SHT30;51335;51.148;6.950;2023-02-15T01:26:05;-0.18;98.85
64858;SHT30;51335;51.148;6.950;2023-02-15T01:26:35;-0.21;98.84
64858;SHT30;51335;51.148;6.950;2023-02-15T01:27:06;-0.21;98.88
64858;SHT30;51335;51.148;6.950;2023-02-15T01:27:36;-0.21;98.91
64858;SHT30;51335;51.148;6.950;2023-02-15T01:28:06;-0.21;98.89
64858;SHT30;51335;51.148;6.950;2023-02-15T01:28:37;-0.25;98.95
64858;SHT30;51335;51.148;6.950;2023-02-15T01:29:07;-0.23;98.96
64858;SHT30;51335;51.148;6.950;2023-02-15T01:29:38;-0.25;98.98
64858;SHT30;51335;51.148;6.950;2023-02-15T01:30:09;-0.22;99.15
64858;SHT30;51335;51.148;6.950;2023-02-15T01:30:39;-0.23;99.20
64858;SHT30;51335;51.148;6.950;2023-02-15T01:31:17;-0.23;99.17
64858;SHT30;51335;51.148;6.950;2023-02-15T01:31:48;-0.23;99.15
64858;SHT30;51335;51.148;6.950;2023-02-15T01:32:18;-0.23;99.14
64858;SHT30;51335;51.148;6.950;2023-02-15T01:32:53;-0.23;99.09
64858;SHT30;51335;51.148;6.950;2023-02-15T01:33:23;-0.23;99.08
64858;SHT30;51335;51.148;6.950;2023-02-15T01:33:53;-0.25;99.14
64858;SHT30;51335;51.148;6.950;2023-02-15T01:34:24;-0.23;99.17
64858;SHT30;51335;51.148;6.950;2023-02-15T01:34:54;-0.25;99.20
64858;SHT30;51335;51.148;6.950;2023-02-15T01:35:24;-0.23;99.19
64858;SHT30;51335;51.148;6.950;2023-02-15T01:35:58;-0.25;99.26
64858;SHT30;51335;51.148;6.950;2023-02-15T01:36:28;-0.23;99.28
64858;SHT30;51335;51.148;6.950;2023-02-15T01:36:58;-0.26;99.22
64858;SHT30;51335;51.148;6.950;2023-02-15T01:37:32;-0.23;99.20
64858;SHT30;51335;51.148;6.950;2023-02-15T01:38:03;-0.26;99.16
64858;SHT30;51335;51.148;6.950;2023-02-15T01:38:34;-0.28;99.36
64858;SHT30;51335;51.148;6.950;2023-02-15T01:39:04;-0.28;99.36
64858;SHT30;51335;51.148;6.950;2023-02-15T01:39:35;-0.26;99.38
64858;SHT30;51335;51.148;6.950;2023-02-15T01:40:08;-0.26;99.27
64858;SHT30;51335;51.148;6.950;2023-02-15T01:40:41;-0.29;99.25
64858;SHT30;51335;51.148;6.950;2023-02-15T01:41:11;-0.30;99.25
64858;SHT30;51335;51.148;6.950;2023-02-15T01:41:42;-0.28;99.30
64858;SHT30;51335;51.148;6.950;2023-02-15T01:42:12;-0.30;99.39
64858;SHT30;51335;51.148;6.950;2023-02-15T01:42:43;-0.29;99.39
64858;SHT30;51335;51.148;6.950;2023-02-15T01:43:13;-0.30;99.34
64858;SHT30;51335;51.148;6.950;2023-02-15T01:43:47;-0.29;99.33
64858;SHT30;51335;51.148;6.950;2023-02-15T01:45:32;-0.33;99.23
64858;SHT30;51335;51.148;6.950;2023-02-15T01:46:02;-0.36;99.29
64858;SHT30;51335;51.148;6.950;2023-02-15T01:46:50;-0.35;99.36
64858;SHT30;51335;51.148;6.950;2023-02-15T01:48:01;-0.39;99.38
64858;SHT30;51335;51.148;6.950;2023-02-15T01:48:33;-0.40;99.30
64858;SHT30;51335;51.148;6.950;2023-02-15T01:49:23;-0.39;99.33
64858;SHT30;51335;51.148;6.950;2023-02-15T01:50:07;-0.40;99.29
64858;SHT30;51335;51.148;6.950;2023-02-15T01:50:43;-0.42;99.27
64858;SHT30;51335;51.148;6.950;2023-02-15T01:51:17;-0.43;99.28
64858;SHT30;51335;51.148;6.950;2023-02-15T01:51:50;-0.45;99.28
64858;SHT30;51335;51.148;6.950;2023-02-15T01:52:21;-0.45;99.35
64858;SHT30;51335;51.148;6.950;2023-02-15T01:53:58;-0.49;99.29
64858;SHT30;51335;51.148;6.950;2023-02-15T01:54:31;-0.48;99.38
64858;SHT30;51335;51.148;6.950;2023-02-15T01:55:03;-0.49;99.36
64858;SHT30;51335;51.148;6.950;2023-02-15T01:55:43;-0.50;99.57
64858;SHT30;51335;51.148;6.950;2023-02-15T01:56:22;-0.49;99.54
64858;SHT30;51335;51.148;6.950;2023-02-15T01:56:56;-0.49;99.47
64858;SHT30;51335;51.148;6.950;2023-02-15T01:57:28;-0.52;99.42
64858;SHT30;51335;51.148;6.950;2023-02-15T01:57:58;-0.50;99.43
64858;SHT30;51335;51.148;6.950;2023-02-15T01:58:29;-0.50;99.50
64858;SHT30;51335;51.148;6.950;2023-02-15T01:59:04;-0.50;99.45
64858;SHT30;51335;51.148;6.950;2023-02-15T01:59:38;-0.50;99.49
64858;SHT30;51335;51.148;6.950;2023-02-15T02:00:09;-0.52;99.49
64858;SHT30;51335;51.148;6.950;2023-02-15T02:00:40;-0.46;99.56
64858;SHT30;51335;51.148;6.950;2023-02-15T02:01:11;-0.48;99.55
64858;SHT30;51335;51.148;6.950;2023-02-15T02:01:41;-0.46;99.59
64858;SHT30;51335;51.148;6.950;2023-02-15T02:02:13;-0.52;99.50
64858;SHT30;51335;51.148;6.950;2023-02-15T02:02:45;-0.52;99.46
64858;SHT30;51335;51.148;6.950;2023-02-15T02:03:19;-0.53;99.47
64858;SHT30;51335;51.148;6.950;2023-02-15T02:04:47;-0.56;99.63
64858;SHT30;51335;51.148;6.950;2023-02-15T02:05:18;-0.55;99.59
64858;SHT30;51335;51.148;6.950;2023-02-15T02:05:48;-0.56;99.58
64858;SHT30;51335;51.148;6.950;2023-02-15T02:06:19;-0.57;99.56
64858;SHT30;51335;51.148;6.950;2023-02-15T02:06:50;-0.53;99.59
64858;SHT30;51335;51.148;6.950;2023-02-15T02:07:23;-0.57;99.55
64858;SHT30;51335;51.148;6.950;2023-02-15T02:07:56;-0.59;99.55
64858;SHT30;51335;51.148;6.950;2023-02-15T02:08:27;-0.59;99.55
64858;SHT30;51335;51.148;6.950;2023-02-15T02:08:58;-0.60;99.57
64858;SHT30;51335;51.148;6.950;2023-02-15T02:09:28;-0.60;99.60
64858;SHT30;51335;51.148;6.950;2023-02-15T02:09:59;-0.59;99.61
64858;SHT30;51335;51.148;6.950;2023-02-15T02:10:30;-0.62;99.62
64858;SHT30;51335;51.148;6.950;2023-02-15T02:11:00;-0.60;99.66
64858;SHT30;51335;51.148;6.950;2023-02-15T02:11:30;-0.57;99.65
64858;SHT30;51335;51.148;6.950;2023-02-15T02:12:01;-0.59;99.70
64858;SHT30;51335;51.148;6.950;2023-02-15T02:12:32;-0.57;99.71
64858;SHT30;51335;51.148;6.950;2023-02-15T02:13:05;-0.57;99.72
64858;SHT30;51335;51.148;6.950;2023-02-15T02:13:35;-0.56;99.71
64858;SHT30;51335;51.148;6.950;2023-02-15T02:14:06;-0.56;99.76
64858;SHT30;51335;51.148;6.950;2023-02-15T02:14:37;-0.56;99.77
64858;SHT30;51335;51.148;6.950;2023-02-15T02:15:08;-0.52;99.77
64858;SHT30;51335;51.148;6.950;2023-02-15T02:16:01;-0.50;99.82
64858;SHT30;51335;51.148;6.950;2023-02-15T02:21:32;-0.62;99.69
64858;SHT30;51335;51.148;6.950;2023-02-15T02:22:44;-0.65;99.67
64858;SHT30;51335;51.148;6.950;2023-02-15T02:23:38;-0.67;99.60
64858;SHT30;51335;51.148;6.950;2023-02-15T02:27:43;-0.83;99.56
64858;SHT30;51335;51.148;6.950;2023-02-15T02:34:31;-0.93;99.95
64858;SHT30;51335;51.148;6.950;2023-02-15T02:35:19;-0.95;99.93
64858;SHT30;51335;51.148;6.950;2023-02-15T02:37:03;-0.93;99.96
64858;SHT30;51335;51.148;6.950;2023-02-15T02:37:14;-0.95;99.88
64858;SHT30;51335;51.148;6.950;2023-02-15T02:39:55;-0.97;99.90
64858;SHT30;51335;51.148;6.950;2023-02-15T02:40:31;-0.98;99.88
64858;SHT30;51335;51.148;6.950;2023-02-15T02:42:28;-1.01;99.94
64858;SHT30;51335;51.148;6.950;2023-02-15T02:43:07;-1.01;99.96
64858;SHT30;51335;51.148;6.950;2023-02-15T02:44:43;-1.03;99.99
64858;SHT30;51335;51.148;6.950;2023-02-15T02:45:41;-1.04;99.99
64858;SHT30;51335;51.148;6.950;2023-02-15T02:46:18;-1.07;99.99
64858;SHT30;51335;51.148;6.950;2023-02-15T02:47:14;-1.04;99.99
64858;SHT30;51335;51.148;6.950;2023-02-15T02:47:50;-1.05;99.99
64858;SHT30;51335;51.148;6.950;2023-02-15T02:48:26;-1.05;99.99
64858;SHT30;51335;51.148;6.950;2023-02-15T02:48:57;-1.08;99.99
64858;SHT30;51335;51.148;6.950;2023-02-15T02:49:38;-1.08;99.99
64858;SHT30;51335;51.148;6.950;2023-02-15T02:50:13;-1.07;99.99
64858;SHT30;51335;51.148;6.950;2023-02-15T02:50:43;-1.07;99.99
64858;SHT30;51335;51.148;6.950;2023-02-15T02:51:14;-1.07;99.99
64858;SHT30;51335;51.148;6.950;2023-02-15T02:51:44;-1.07;99.99
64858;SHT30;51335;51.148;6.950;2023-02-15T02:53:10;-1.04;99.99
64858;SHT30;51335;51.148;6.950;2023-02-15T02:53:40;-1.05;99.99
64858;SHT30;51335;51.148;6.950;2023-02-15T02:54:10;-1.05;99.99
64858;SHT30;51335;51.148;6.950;2023-02-15T02:54:41;-1.04;99.99
64858;SHT30;51335;51.148;6.950;2023-02-15T02:55:54;-1.05;99.99
64858;SHT30;51335;51.148;6.950;2023-02-15T02:56:30;-1.05;99.99
64858;SHT30;51335;51.148;6.950;2023-02-15T02:57:04;-1.04;99.99
64858;SHT30;51335;51.148;6.950;2023-02-15T02:57:40;-1.03;99.99
64858;SHT30;51335;51.148;6.950;2023-02-15T02:58:26;-1.05;99.99
64858;SHT30;51335;51.148;6.950;2023-02-15T02:59:03;-1.03;99.99
64858;SHT30;51335;51.148;6.950;2023-02-15T02:59:40;-1.00;99.99
64858;SHT30;51335;51.148;6.950;2023-02-15T03:00:12;-0.97;99.99
64858;SHT30;51335;51.148;6.950;2023-02-15T03:01:29;-1.00;99.99
64858;SHT30;51335;51.148;6.950;2023-02-15T03:02:17;-1.00;99.99
64858;SHT30;51335;51.148;6.950;2023-02-15T03:02:58;-0.97;99.99
64858;SHT30;51335;51.148;6.950;2023-02-15T03:03:40;-1.00;99.99
64858;SHT30;51335;51.148;6.950;2023-02-15T03:04:15;-1.01;99.99
64858;SHT30;51335;51.148;6.950;2023-02-15T03:04:50;-1.00;99.99
64858;SHT30;51335;51.148;6.950;2023-02-15T03:05:26;-1.01;99.99
64858;SHT30;51335;51.148;6.950;2023-02-15T03:06:00;-1.00;99.99
64858;SHT30;51335;51.148;6.950;2023-02-15T03:06:41;-1.01;99.99
64858;SHT30;51335;51.148;6.950;2023-02-15T03:07:16;-1.01;99.99
64858;SHT30;51335;51.148;6.950;2023-02-15T03:07:49;-1.04;99.99
64858;SHT30;51335;51.148;6.950;2023-02-15T03:08:23;-1.04;99.99
64858;SHT30;51335;51.148;6.950;2023-02-15T03:09:00;-1.07;99.99
64858;SHT30;51335;51.148;6.950;2023-02-15T03:09:37;-1.05;99.99
64858;SHT30;51335;51.148;6.950;2023-02-15T03:10:09;-1.05;99.99
64858;SHT30;51335;51.148;6.950;2023-02-15T03:10:40;-1.07;99.99
64858;SHT30;51335;51.148;6.950;2023-02-15T03:11:11;-1.08;99.99
64858;SHT30;51335;51.148;6.950;2023-02-15T03:11:43;-1.07;99.99
64858;SHT30;51335;51.148;6.950;2023-02-15T03:12:26;-1.07;99.99
64858;SHT30;51335;51.148;6.950;2023-02-15T03:12:58;-1.08;99.99
64858;SHT30;51335;51.148;6.950;2023-02-15T03:13:28;-1.09;99.99
64858;SHT30;51335;51.148;6.950;2023-02-15T03:13:58;-1.07;99.99
64858;SHT30;51335;51.148;6.950;2023-02-15T03:14:29;-1.04;99.99
64858;SHT30;51335;51.148;6.950;2023-02-15T03:15:20;-1.04;99.99
64858;SHT30;51335;51.148;6.950;2023-02-15T03:15:51;-1.07;99.99
64858;SHT30;51335;51.148;6.950;2023-02-15T03:16:22;-1.09;99.99
64858;SHT30;51335;51.148;6.950;2023-02-15T03:16:54;-1.07;99.99
64858;SHT30;51335;51.148;6.950;2023-02-15T03:17:27;-1.09;99.99
64858;SHT30;51335;51.148;6.950;2023-02-15T03:18:00;-1.09;99.99
64858;SHT30;51335;51.148;6.950;2023-02-15T03:18:36;-1.09;99.99
64858;SHT30;51335;51.148;6.950;2023-02-15T03:19:18;-1.11;99.99
64858;SHT30;51335;51.148;6.950;2023-02-15T03:19:55;-1.14;99.99
64858;SHT30;51335;51.148;6.950;2023-02-15T03:20:32;-1.09;99.99
64858;SHT30;51335;51.148;6.950;2023-02-15T03:21:05;-1.09;99.99
64858;SHT30;51335;51.148;6.950;2023-02-15T03:21:42;-1.11;99.99
64858;SHT30;51335;51.148;6.950;2023-02-15T03:22:18;-1.09;99.99
64858;SHT30;51335;51.148;6.950;2023-02-15T03:22:58;-1.12;99.99
64858;SHT30;51335;51.148;6.950;2023-02-15T03:23:30;-1.11;99.99
64858;SHT30;51335;51.148;6.950;2023-02-15T03:24:12;-1.09;99.99
64858;SHT30;51335;51.148;6.950;2023-02-15T03:24:53;-1.09;99.99
64858;SHT30;51335;51.148;6.950;2023-02-15T03:25:30;-1.08;99.99
64858;SHT30;51335;51.148;6.950;2023-02-15T03:26:05;-1.09;99.99
64858;SHT30;51335;51.148;6.950;2023-02-15T03:26:36;-1.08;99.99
64858;SHT30;51335;51.148;6.950;2023-02-15T03:27:13;-1.07;99.99
64858;SHT30;51335;51.148;6.950;2023-02-15T03:27:48;-1.05;99.99
64858;SHT30;51335;51.148;6.950;2023-02-15T03:28:27;-1.07;99.99
64858;SHT30;51335;51.148;6.950;2023-02-15T03:28:59;-1.11;99.99
64858;SHT30;51335;51.148;6.950;2023-02-15T03:29:31;-1.07;99.99
64858;SHT30;51335;51.148;6.950;2023-02-15T03:30:03;-1.08;99.99
64858;SHT30;51335;51.148;6.950;2023-02-15T03:30:36;-1.09;99.99
64858;SHT30;51335;51.148;6.950;2023-02-15T03:31:10;-1.11;99.99
64858;SHT30;51335;51.148;6.950;2023-02-15T03:31:44;-1.09;99.99
64858;SHT30;51335;51.148;6.950;2023-02-15T03:32:15;-1.11;99.99
64858;SHT30;51335;51.148;6.950;2023-02-15T03:32:48;-1.08;99.99
64858;SHT30;51335;51.148;6.950;2023-02-15T03:33:21;-1.12;99.99
64858;SHT30;51335;51.148;6.950;2023-02-15T03:33:56;-1.12;99.99
64858;SHT30;51335;51.148;6.950;2023-02-15T03:34:28;-1.14;99.99
64858;SHT30;51335;51.148;6.950;2023-02-15T03:34:58;-1.11;99.99
64858;SHT30;51335;51.148;6.950;2023-02-15T03:35:59;-1.15;99.99
64858;SHT30;51335;51.148;6.950;2023-02-15T03:36:32;-1.16;99.99
64858;SHT30;51335;51.148;6.950;2023-02-15T03:38:00;-1.19;99.99
64858;SHT30;51335;51.148;6.950;2023-02-15T03:38:44;-1.16;99.99
64858;SHT30;51335;51.148;6.950;2023-02-15T03:39:29;-1.16;99.99
64858;SHT30;51335;51.148;6.950;2023-02-15T03:40:07;-1.16;99.99
64858;SHT30;51335;51.148;6.950;2023-02-15T03:40:42;-1.18;99.99
64858;SHT30;51335;51.148;6.950;2023-02-15T03:41:16;-1.18;99.99
64858;SHT30;51335;51.148;6.950;2023-02-15T03:41:56;-1.16;99.99
64858;SHT30;51335;51.148;6.950;2023-02-15T03:42:32;-1.15;99.99
64858;SHT30;51335;51.148;6.950;2023-02-15T03:43:36;-1.14;99.99
64858;SHT30;51335;51.148;6.950;2023-02-15T03:44:17;-1.14;99.99
64858;SHT30;51335;51.148;6.950;2023-02-15T03:45:05;-1.12;99.99
64858;SHT30;51335;51.148;6.950;2023-02-15T03:45:40;-1.11;99.99
64858;SHT30;51335;51.148;6.950;2023-02-15T03:46:42;-1.14;99.99
64858;SHT30;51335;51.148;6.950;2023-02-15T03:47:15;-1.14;99.99
64858;SHT30;51335;51.148;6.950;2023-02-15T03:47:48;-1.14;99.99
64858;SHT30;51335;51.148;6.950;2023-02-15T03:48:33;-1.14;99.99
64858;SHT30;51335;51.148;6.950;2023-02-15T03:49:10;-1.19;99.99
64858;SHT30;51335;51.148;6.950;2023-02-15T03:50:27;-1.19;99.99
64858;SHT30;51335;51.148;6.950;2023-02-15T03:51:08;-1.18;99.99
64858;SHT30;51335;51.148;6.950;2023-02-15T03:51:42;-1.19;99.99
64858;SHT30;51335;51.148;6.950;2023-02-15T03:52:15;-1.19;99.99
64858;SHT30;51335;51.148;6.950;2023-02-15T03:52:46;-1.19;99.99
64858;SHT30;51335;51.148;6.950;2023-02-15T03:53:18;-1.22;99.99
64858;SHT30;51335;51.148;6.950;2023-02-15T03:53:50;-1.21;99.99
64858;SHT30;51335;51.148;6.950;2023-02-15T03:54:51;-1.22;99.99
64858;SHT30;51335;51.148;6.950;2023-02-15T03:55:22;-1.25;99.99
64858;SHT30;51335;51.148;6.950;2023-02-15T03:55:55;-1.24;99.99
64858;SHT30;51335;51.148;6.950;2023-02-15T03:56:26;-1.19;99.99
64858;SHT30;51335;51.148;6.950;2023-02-15T03:56:57;-1.16;99.99
64858;SHT30;51335;51.148;6.950;2023-02-15T03:57:28;-1.21;99.99
64858;SHT30;51335;51.148;6.950;2023-02-15T03:57:58;-1.19;99.99
64858;SHT30;51335;51.148;6.950;2023-02-15T03:58:29;-1.21;99.99